Time;durP1;ratioP1;P1;durP2;ratioP2;P2;SDS_P1;SDS_P2;PMS_P1;PMS_P2;Temp;Humidity;BMP_temperature;BMP_pressure;BME280_temperature;BME280_humidity;BME280_pressure;Samples;Min_cycle;Max_cycle;Signal;HPM_P1;HPM_P2
2022/08/05 13:28:26;;;;;;;4.50;3.80;;;;;;;31.63;36.11;98411.42;212734;1312;547330;-77
2022/08/05 13:33:32;;;;;;;6.80;6.30;;;;;;;32.19;35.77;98410.41;217467;1290;22575;-73
2022/08/05 13:38:55;;;;;;;4.20;3.90;;;;;;;32.41;34.79;98409.15;214933;1289;3550842;-73
2022/08/05 13:43:58;;;;;;;5.20;3.80;;;;;;;32.63;34.06;98414.55;217683;1287;22836;-74
2022/08/05 13:49:06;;;;;;;3.80;3.50;;;;;;;32.80;33.10;98415.20;217692;1288;23818;-74
2022/08/05 13:54:13;;;;;;;4.60;3.80;;;;;;;32.90;32.53;98410.73;217826;1287;22568;-74
2022/08/05 13:59:22;;;;;;;5.20;4.10;;;;;;;33.02;32.95;98413.34;217873;1287;24935;-74
2022/08/05 14:09:52;;;;;;;4.00;3.60;;;;;;;33.32;32.24;98398.17;219352;1277;22711;-75
2022/08/05 14:15:00;;;;;;;4.40;4.00;;;;;;;33.52;31.56;98394.66;219163;1280;22795;-74
2022/08/05 14:20:28;;;;;;;4.80;4.40;;;;;;;33.69;30.84;98392.77;219289;1280;22700;-72
2022/08/05 14:25:30;;;;;;;;;;;;;;;33.69;31.27;98387.11;219106;1279;22537;-76
2022/08/05 14:30:39;;;;;;;4.80;4.40;;;;;;;33.70;31.02;98380.98;219229;1280;22568;-74
2022/08/05 14:35:53;;;;;;;4.70;4.20;;;;;;;33.84;31.32;98379.69;219288;1280;22620;-74
2022/08/05 14:40:56;;;;;;;6.20;4.40;;;;;;;33.91;30.61;98381.45;219298;1280;23968;-73
2022/08/05 14:46:01;;;;;;;4.80;4.40;;;;;;;33.89;30.07;98380.98;218877;1280;25448;-75
2022/08/05 14:51:03;;;;;;;7.30;4.60;;;;;;;33.88;30.01;98380.73;219140;1280;23616;-73
2022/08/05 14:56:12;;;;;;;4.90;4.10;;;;;;;33.84;30.11;98381.83;218956;1280;25258;-73
2022/08/05 15:01:18;;;;;;;4.30;4.00;;;;;;;33.83;29.91;98382.51;219225;1280;22562;-74
2022/08/05 15:06:43;;;;;;;4.60;4.30;;;;;;;33.84;29.63;98382.94;218892;1280;23122;-74
2022/08/05 15:12:17;;;;;;;9.70;7.10;;;;;;;33.78;30.02;98372.61;219161;1280;22661;-73
2022/08/05 15:17:39;;;;;;;7.20;5.60;;;;;;;33.85;30.45;98370.53;219017;1280;22742;-73
2022/08/05 15:22:52;;;;;;;4.90;4.50;;;;;;;33.88;30.01;98366.20;219170;1280;22645;-73
2022/08/05 15:28:05;;;;;;;5.50;4.80;;;;;;;33.93;30.36;98361.37;218976;1280;22541;-75
2022/08/05 15:33:14;;;;;;;5.40;4.90;;;;;;;33.99;30.23;98361.33;219126;1279;22720;-74
2022/08/05 15:38:36;;;;;;;4.50;4.20;;;;;;;33.98;30.24;98355.02;218893;1280;22551;-75
2022/08/05 15:43:45;;;;;;;6.10;5.60;;;;;;;33.94;29.79;98353.33;219111;1280;22912;-74
2022/08/05 15:48:56;;;;;;;5.40;4.80;;;;;;;33.86;29.90;98349.30;218782;1280;24341;-75
2022/08/05 15:54:30;;;;;;;5.00;4.50;;;;;;;33.81;30.00;98349.73;218989;1280;25482;-74
2022/08/05 15:59:55;;;;;;;5.10;4.70;;;;;;;33.77;30.40;98348.22;218714;1280;22573;-75
2022/08/05 16:05:07;;;;;;;5.30;4.90;;;;;;;33.74;30.57;98341.55;218718;1280;22599;-73
2022/08/05 16:10:15;;;;;;;6.10;5.50;;;;;;;33.69;30.39;98342.55;218813;1280;22569;-75
2022/08/05 16:15:39;;;;;;;5.20;4.60;;;;;;;33.66;31.17;98342.25;218853;1280;22683;-72
2022/08/05 16:21:20;;;;;;;5.80;5.20;;;;;;;33.59;30.88;98347.28;218733;1279;22631;-74
2022/08/05 16:26:59;;;;;;;5.80;5.40;;;;;;;33.51;31.39;98345.05;218844;1279;24725;-73
2022/08/05 16:32:10;;;;;;;5.80;5.40;;;;;;;33.43;31.38;98341.00;219073;1280;22739;-76
2022/08/05 16:37:12;;;;;;;5.00;4.60;;;;;;;33.34;31.52;98338.70;218761;1280;22626;-73
2022/08/05 16:42:37;;;;;;;5.40;5.00;;;;;;;33.21;31.95;98335.83;218699;1280;22554;-76
2022/08/05 16:48:00;;;;;;;5.20;4.70;;;;;;;33.11;32.35;98333.52;218738;1279;22573;-74
2022/08/05 16:53:22;;;;;;;5.60;5.10;;;;;;;32.95;32.51;98327.66;218890;1280;22535;-75
2022/08/05 16:58:48;;;;;;;6.10;5.50;;;;;;;32.75;32.61;98328.02;219367;1280;22531;-74
2022/08/05 17:04:04;;;;;;;6.90;5.10;;;;;;;32.67;32.91;98326.80;219249;1280;24513;-74
2022/08/05 17:09:11;;;;;;;8.00;4.80;;;;;;;32.56;33.43;98324.63;218869;1280;25261;-73
2022/08/05 17:14:21;;;;;;;5.20;4.70;;;;;;;32.43;33.51;98317.95;219087;1280;22543;-74
2022/08/05 17:19:51;;;;;;;8.10;7.40;;;;;;;32.26;33.78;98319.22;219215;1280;25575;-72
2022/08/05 17:25:12;;;;;;;6.20;5.60;;;;;;;32.09;34.21;98321.73;219161;1280;25207;-71
2022/08/05 17:30:43;;;;;;;6.00;5.50;;;;;;;31.89;34.45;98327.26;219315;1280;23218;-74
2022/08/05 17:36:16;;;;;;;7.00;6.30;;;;;;;31.69;34.66;98328.05;219254;1280;24324;-74
2022/08/05 17:41:49;;;;;;;;;;;;;;;;;;;;;
2022/08/05 17:47:46;;;;;;;6.40;5.70;;;;;;;31.08;35.64;98341.17;219424;1276;24285;-74
2022/08/05 17:53:12;;;;;;;6.90;6.00;;;;;;;30.76;36.30;98347.55;219539;1276;22675;-74
2022/08/05 17:58:19;;;;;;;6.90;6.20;;;;;;;30.44;36.85;98347.88;219239;1276;25368;-74
2022/08/05 18:03:45;;;;;;;8.50;7.80;;;;;;;30.13;37.65;98347.69;219470;1276;22735;-75
2022/08/05 18:09:08;;;;;;;7.20;6.40;;;;;;;29.80;37.84;98348.83;219500;1276;24377;-75
2022/08/05 18:14:51;;;;;;;7.70;6.90;;;;;;;29.48;38.42;98348.56;219485;1276;22546;-75
2022/08/05 18:20:08;;;;;;;10.50;7.40;;;;;;;29.16;38.93;98353.05;219563;1276;22554;-75
2022/08/05 18:25:16;;;;;;;14.80;7.60;;;;;;;28.87;39.24;98354.06;219578;1276;22560;-75
2022/08/05 18:30:39;;;;;;;10.70;7.90;;;;;;;28.60;40.25;98355.71;219500;1276;24161;-74
2022/08/05 18:35:56;;;;;;;17.90;8.20;;;;;;;28.31;40.70;98353.90;219412;1277;22611;-74
2022/08/05 18:41:17;;;;;;;16.80;8.90;;;;;;;28.02;41.29;98351.27;219371;1276;22560;-74
2022/08/05 18:46:42;;;;;;;16.10;9.00;;;;;;;27.73;42.16;98348.67;219582;1276;22555;-75
2022/08/05 18:57:55;;;;;;;12.20;8.30;;;;;;;27.21;43.40;98354.43;219478;1276;25500;-75
2022/08/05 19:03:04;;;;;;;10.20;8.30;;;;;;;26.97;43.80;98354.46;219399;1276;22577;-74
2022/08/05 19:08:15;;;;;;;15.40;8.90;;;;;;;26.76;44.25;98359.46;219445;1276;22645;-74
2022/08/05 19:13:42;;;;;;;15.60;8.50;;;;;;;26.55;44.44;98361.35;219394;1276;24893;-73
2022/08/05 19:19:42;;;;;;;10.60;7.50;;;;;;;26.35;44.65;98369.99;219284;1276;24140;-74
2022/08/05 19:25:12;;;;;;;13.00;8.70;;;;;;;26.17;44.81;98377.73;219503;1276;22543;-74
2022/08/05 19:30:51;;;;;;;11.40;8.20;;;;;;;25.99;45.24;98376.27;219583;1276;22563;-73
2022/08/05 19:36:07;;;;;;;13.40;7.90;;;;;;;25.81;45.78;98376.92;219375;1276;22883;-74
2022/08/05 19:41:33;;;;;;;13.10;8.90;;;;;;;25.63;46.35;98376.46;219635;1276;24306;-74
2022/08/05 19:47:22;;;;;;;12.00;9.90;;;;;;;25.44;47.06;98375.30;219639;1276;22706;-73
2022/08/05 19:52:47;;;;;;;18.50;11.60;;;;;;;25.26;47.63;98381.84;219583;1276;23808;-74
2022/08/05 19:58:17;;;;;;;17.70;12.30;;;;;;;25.10;48.78;98387.83;219162;1277;25363;-74
2022/08/05 20:03:41;;;;;;;18.60;12.40;;;;;;;24.96;49.36;98385.67;219628;1276;25322;-73
2022/08/05 20:08:44;;;;;;;13.90;11.70;;;;;;;24.81;49.82;98383.04;219579;1276;22566;-73
2022/08/05 20:13:52;;;;;;;17.40;12.90;;;;;;;24.67;50.27;98380.86;219633;1276;24420;-75
2022/08/05 20:19:26;;;;;;;21.90;13.20;;;;;;;24.54;50.90;98386.17;219715;1277;24241;-74
2022/08/05 20:24:37;;;;;;;21.60;11.90;;;;;;;24.42;51.44;98380.21;219664;1276;22563;-74
2022/08/05 20:30:19;;;;;;;17.10;11.80;;;;;;;24.30;51.71;98382.23;219657;1276;25402;-73
2022/08/05 20:35:40;;;;;;;;;;;;;;;;;;;;;
2022/08/05 20:41:09;;;;;;;17.20;11.40;;;;;;;24.04;52.32;98379.16;219698;1276;24164;-73
2022/08/05 20:46:27;;;;;;;16.60;10.60;;;;;;;23.91;52.59;98378.67;219431;1276;22557;-75
2022/08/05 20:51:39;;;;;;;12.40;9.90;;;;;;;23.80;52.95;98382.21;219825;1274;24320;-73
2022/08/05 20:56:41;;;;;;;12.30;10.50;;;;;;;23.69;53.04;98383.51;220045;1276;22631;-73
2022/08/05 21:02:30;;;;;;;18.20;10.20;;;;;;;23.59;53.39;98386.37;219878;1276;22779;-74
2022/08/05 21:07:49;;;;;;;16.00;9.10;;;;;;;23.48;53.89;98381.64;219823;1276;22829;-73
2022/08/05 21:13:33;;;;;;;;;;;;;;;23.42;54.30;98382.86;219811;1276;22576;-74
2022/08/05 21:19:35;;;;;;;;;;;;;;;;;;;;;
2022/08/05 21:25:02;;;;;;;15.60;9.70;;;;;;;23.24;54.94;98398.92;219627;1276;25516;-74
2022/08/05 21:31:01;;;;;;;12.90;9.80;;;;;;;23.15;55.56;98401.47;219816;1276;25437;-73
2022/08/05 21:36:33;;;;;;;13.60;9.90;;;;;;;23.05;55.74;98403.56;219726;1276;22604;-74
2022/08/05 21:42:29;;;;;;;15.70;9.90;;;;;;;22.97;56.25;98399.46;219910;1276;25373;-74
2022/08/05 21:48:01;;;;;;;11.30;9.30;;;;;;;22.86;56.52;98399.08;219772;1276;24228;-75
2022/08/05 21:53:36;;;;;;;15.40;10.20;;;;;;;22.76;56.86;98399.40;219728;1276;25455;-74
2022/08/05 22:10:41;;;;;;;;;;;;;;;;;;;;;
2022/08/05 22:16:25;;;;;;;12.60;10.30;;;;;;;22.40;58.02;98403.32;219439;1278;23218;-72
2022/08/05 22:22:21;;;;;;;12.10;9.00;;;;;;;22.31;58.47;98401.19;219781;1277;26384;-73
2022/08/05 22:27:58;;;;;;;15.60;9.20;;;;;;;22.23;58.83;98403.53;219633;1279;22545;-74
2022/08/05 22:33:13;;;;;;;12.10;9.50;;;;;;;22.16;59.10;98401.21;219679;1278;24273;-74
2022/08/05 22:38:25;;;;;;;12.50;9.30;;;;;;;22.12;59.41;98402.64;219393;1277;25452;-74
2022/08/05 22:44:35;;;;;;;10.60;9.50;;;;;;;22.04;59.41;98402.88;219604;1278;22573;-75
2022/08/05 22:50:20;;;;;;;12.50;9.70;;;;;;;21.97;59.70;98402.64;219500;1278;22547;-74
2022/08/05 22:55:56;;;;;;;11.10;10.00;;;;;;;21.90;60.07;98395.48;219778;1276;24310;-74
2022/08/05 23:02:09;;;;;;;13.60;9.60;;;;;;;21.83;60.28;98396.35;219611;1276;22550;-75
2022/08/05 23:08:34;;;;;;;15.50;11.40;;;;;;;21.78;61.06;98412.64;219677;1276;22612;-75
2022/08/05 23:14:02;;;;;;;11.80;10.10;;;;;;;21.76;61.43;98415.04;219891;1276;23869;-73
2022/08/05 23:20:18;;;;;;;13.80;9.80;;;;;;;21.74;61.81;98416.58;219604;1276;22561;-74
2022/08/05 23:32:31;;;;;;;;;;;;;;;;;;;;;
2022/08/05 23:37:55;;;;;;;14.80;11.00;;;;;;;21.71;63.03;98430.79;219612;1276;23254;-74
2022/08/05 23:43:40;;;;;;;16.80;10.40;;;;;;;21.65;63.05;98428.47;219495;1278;25452;-74
2022/08/05 23:55:31;;;;;;;13.30;10.40;;;;;;;21.48;63.59;98443.58;219601;1276;24243;-74
